DAL404 KATL-KCHS
Flight info
| Callsign | DAL404 |
|---|---|
| Flight time | N/A |
| Altitude | 23000 |
| Route | GAIRY2 IRQ OSPRI7 |
| Aircraft | A320/M-SDE3FGHIRWY/LB1 |
Departure
| Time | 2026-05-01 15:18 |
|---|---|
| Airport | Hartsfield Jackson Atlanta International Airport (KATL) |
Arrival
| Time | N/A |
|---|---|
| Airport | Charleston International Airport (KCHS) |
| Time | Latitude | Longitude | Altitude | Speed | Heading |
|---|---|---|---|---|---|
| 2026-05-01 14:38 | 33.63834 | -84.43544 | 1006 ft | 0 kts | 269° |
| 2026-05-01 15:09 | 33.63834 | -84.43534 | 1006 ft | 4 kts | 269° |
| 2026-05-01 15:09 | 33.63834 | -84.43501 | 1006 ft | 4 kts | 269° |
| 2026-05-01 15:09 | 33.63835 | -84.43469 | 1006 ft | 4 kts | 260° |
| 2026-05-01 15:09 | 33.63842 | -84.43443 | 1006 ft | 1 kts | 235° |
| 2026-05-01 15:10 | 33.63843 | -84.43442 | 1006 ft | 0 kts | 234° |
| 2026-05-01 15:12 | 33.63821 | -84.43456 | 1006 ft | 6 kts | 194° |
| 2026-05-01 15:12 | 33.63782 | -84.43458 | 1006 ft | 6 kts | 180° |
| 2026-05-01 15:13 | 33.63676 | -84.43472 | 1006 ft | 6 kts | 223° |
| 2026-05-01 15:14 | 33.63663 | -84.43647 | 1006 ft | 14 kts | 270° |
| 2026-05-01 15:14 | 33.63663 | -84.43755 | 1006 ft | 12 kts | 270° |
| 2026-05-01 15:14 | 33.63663 | -84.43938 | 1006 ft | 10 kts | 270° |
| 2026-05-01 15:15 | 33.63663 | -84.44080 | 1007 ft | 10 kts | 270° |
| 2026-05-01 15:15 | 33.63663 | -84.44279 | 1007 ft | 11 kts | 270° |
| 2026-05-01 15:16 | 33.63663 | -84.44446 | 1006 ft | 9 kts | 262° |
| 2026-05-01 15:16 | 33.63553 | -84.44487 | 1007 ft | 10 kts | 179° |
| 2026-05-01 15:17 | 33.63472 | -84.44432 | 1007 ft | 7 kts | 92° |
| 2026-05-01 15:18 | 33.63474 | -84.42324 | 1083 ft | 159 kts | 89° |
| 2026-05-01 15:18 | 33.63486 | -84.41000 | 1834 ft | 158 kts | 88° |
| 2026-05-01 15:19 | 33.63460 | -84.36775 | 3396 ft | 196 kts | 90° |
| 2026-05-01 15:19 | 33.63424 | -84.33074 | 4111 ft | 246 kts | 89° |
| 2026-05-01 15:19 | 33.63405 | -84.30925 | 4602 ft | 267 kts | 90° |
| 2026-05-01 15:20 | 33.63363 | -84.26274 | 6169 ft | 286 kts | 90° |
| 2026-05-01 15:20 | 33.63359 | -84.23898 | 7044 ft | 290 kts | 90° |
| 2026-05-01 15:20 | 33.63368 | -84.21462 | 7875 ft | 294 kts | 90° |
| 2026-05-01 15:21 | 33.63380 | -84.18973 | 8710 ft | 299 kts | 90° |
| 2026-05-01 15:21 | 33.63391 | -84.16449 | 9515 ft | 305 kts | 89° |
| 2026-05-01 15:21 | 33.63400 | -84.13907 | 10219 ft | 314 kts | 90° |
| 2026-05-01 15:21 | 33.63363 | -84.11185 | 10514 ft | 338 kts | 95° |
| 2026-05-01 15:22 | 33.62183 | -84.05440 | 11425 ft | 366 kts | 110° |
| 2026-05-01 15:22 | 33.61400 | -84.02537 | 12079 ft | 373 kts | 110° |
| 2026-05-01 15:22 | 33.60596 | -83.99548 | 12742 ft | 380 kts | 110° |
| 2026-05-01 15:23 | 33.59776 | -83.96493 | 13422 ft | 387 kts | 111° |
| 2026-05-01 15:23 | 33.58946 | -83.93392 | 14049 ft | 393 kts | 111° |
| 2026-05-01 15:23 | 33.58101 | -83.90231 | 14611 ft | 401 kts | 111° |
| 2026-05-01 15:23 | 33.57252 | -83.87050 | 15130 ft | 408 kts | 111° |
| 2026-05-01 15:24 | 33.56375 | -83.83777 | 15686 ft | 415 kts | 111° |
| 2026-05-01 15:24 | 33.55481 | -83.80455 | 16241 ft | 421 kts | 111° |
| 2026-05-01 15:24 | 33.54569 | -83.77081 | 16795 ft | 428 kts | 111° |
| 2026-05-01 15:24 | 33.53655 | -83.73705 | 17337 ft | 434 kts | 111° |
| 2026-05-01 15:25 | 33.52714 | -83.70229 | 17865 ft | 441 kts | 111° |
| 2026-05-01 15:25 | 33.51884 | -83.66651 | 18373 ft | 450 kts | 103° |
| 2026-05-01 15:25 | 33.51520 | -83.62889 | 18832 ft | 457 kts | 91° |
| 2026-05-01 15:25 | 33.51672 | -83.59060 | 19349 ft | 461 kts | 81° |
| 2026-05-01 15:26 | 33.52198 | -83.55245 | 19892 ft | 464 kts | 78° |
| 2026-05-01 15:26 | 33.52732 | -83.51454 | 20451 ft | 470 kts | 78° |
| 2026-05-01 15:26 | 33.53273 | -83.47565 | 20949 ft | 475 kts | 78° |
| 2026-05-01 15:26 | 33.53817 | -83.43631 | 21453 ft | 480 kts | 78° |
| 2026-05-01 15:27 | 33.54368 | -83.39643 | 21951 ft | 484 kts | 78° |
| 2026-05-01 15:27 | 33.54914 | -83.35677 | 22438 ft | 489 kts | 78° |
| 2026-05-01 15:27 | 33.55469 | -83.31637 | 22886 ft | 494 kts | 78° |
| 2026-05-01 15:28 | 33.56579 | -83.23501 | 23054 ft | 491 kts | 78° |
| 2026-05-01 15:28 | 33.57129 | -83.19448 | 23055 ft | 490 kts | 78° |
| 2026-05-01 15:28 | 33.57672 | -83.15456 | 23047 ft | 490 kts | 79° |
| 2026-05-01 15:29 | 33.58770 | -83.07360 | 23052 ft | 491 kts | 79° |
| 2026-05-01 15:29 | 33.59312 | -83.03354 | 23053 ft | 491 kts | 79° |
| 2026-05-01 15:29 | 33.60407 | -82.95239 | 23044 ft | 491 kts | 79° |
| 2026-05-01 15:30 | 33.61484 | -82.87185 | 23033 ft | 490 kts | 79° |
| 2026-05-01 15:31 | 33.63628 | -82.71000 | 23042 ft | 490 kts | 79° |
| 2026-05-01 15:31 | 33.64690 | -82.62962 | 23053 ft | 490 kts | 79° |
| 2026-05-01 15:32 | 33.65749 | -82.54870 | 23060 ft | 491 kts | 79° |
| 2026-05-01 15:32 | 33.66801 | -82.46755 | 23008 ft | 491 kts | 79° |
| 2026-05-01 15:33 | 33.68378 | -82.34626 | 23025 ft | 491 kts | 79° |
| 2026-05-01 15:34 | 33.69933 | -82.22459 | 23032 ft | 492 kts | 82° |